TimeMST,TemperatureF,Dew PointF,Humidity,Sea Level PressureIn,VisibilityMPH,Wind Direction,Wind SpeedMPH,Gust SpeedMPH,PrecipitationIn,Events,Conditions,WindDirDegrees,DateUTC
12:21 AM,28.4,26.6,93,29.88,1.2,West,6.9,-,0.02,Snow,Light Snow,270,2012-12-07 07:21:00
12:40 AM,28.4,26.6,93,29.87,1.5,West,6.9,-,0.03,Snow,Light Snow,280,2012-12-07 07:40:00
12:53 AM,28.9,27.0,92,29.95,2.0,West,5.8,-,0.03,Snow,Light Snow,280,2012-12-07 07:53:00
1:04 AM,28.4,26.6,93,29.88,4.0,West,8.1,-,0.00,Snow,Light Snow,270,2012-12-07 08:04:00
1:25 AM,28.4,26.6,93,29.88,4.0,West,8.1,-,0.00,Snow,Light Snow,280,2012-12-07 08:25:00
1:53 AM,28.9,26.1,89,29.94,10.0,West,5.8,-,0.00,Snow,Light Snow,280,2012-12-07 08:53:00
2:53 AM,28.0,25.0,88,29.96,10.0,West,8.1,-,0.00,,Overcast,260,2012-12-07 09:53:00
3:53 AM,28.9,24.1,82,29.95,10.0,WNW,8.1,-,N/A,,Overcast,290,2012-12-07 10:53:00
4:53 AM,21.0,19.0,92,29.98,10.0,NW,4.6,-,N/A,,Partly Cloudy,310,2012-12-07 11:53:00
5:53 AM,21.9,17.1,82,29.97,10.0,Calm,Calm,-,N/A,,Clear,0,2012-12-07 12:53:00
6:53 AM,15.1,10.9,84,29.99,10.0,SSW,6.9,-,N/A,,Clear,210,2012-12-07 13:53:00
7:53 AM,16.0,12.0,84,30.01,10.0,SW,6.9,-,N/A,,Scattered Clouds,230,2012-12-07 14:53:00
8:53 AM,21.0,17.1,85,30.01,8.0,SE,4.6,-,0.00,Snow,Light Snow,130,2012-12-07 15:53:00
9:38 AM,24.8,17.6,74,29.90,1.8,Calm,Calm,-,0.00,Snow,Light Snow,0,2012-12-07 16:38:00
9:50 AM,23.0,19.4,86,29.90,3.0,SSW,6.9,-,0.01,Snow,Light Snow,200,2012-12-07 16:50:00
9:53 AM,23.0,19.0,85,30.03,7.0,SSW,6.9,-,0.01,Snow,Light Snow,200,2012-12-07 16:53:00
10:04 AM,23.0,19.4,86,29.91,9.0,SSW,5.8,-,0.00,,Mostly Cloudy,210,2012-12-07 17:04:00
10:53 AM,24.1,19.9,84,30.02,10.0,SSW,4.6,-,0.00,,Mostly Cloudy,200,2012-12-07 17:53:00
11:53 AM,27.0,21.9,81,29.98,10.0,South,11.5,-,0.00,,Mostly Cloudy,180,2012-12-07 18:53:00
12:53 PM,30.0,24.1,79,29.96,10.0,SSW,5.8,-,N/A,,Mostly Cloudy,200,2012-12-07 19:53:00
1:53 PM,30.9,23.0,72,29.94,10.0,Calm,Calm,-,N/A,,Scattered Clouds,0,2012-12-07 20:53:00
2:53 PM,28.0,21.9,78,29.96,10.0,Calm,Calm,-,N/A,,Partly Cloudy,0,2012-12-07 21:53:00
3:53 PM,24.1,17.1,75,29.96,10.0,SW,5.8,-,N/A,,Clear,230,2012-12-07 22:53:00
4:53 PM,18.0,10.9,74,30.00,10.0,South,4.6,-,N/A,,Clear,180,2012-12-07 23:53:00
5:53 PM,15.8,8.6,73,29.83,10.0,SSW,6.9,-,N/A,,Clear,200,2012-12-08 00:53:00
6:53 PM,21.0,8.1,57,29.98,10.0,SSW,9.2,-,N/A,,Clear,200,2012-12-08 01:53:00
7:53 PM,21.9,9.0,58,29.93,10.0,SSW,9.2,-,N/A,,Clear,200,2012-12-08 02:53:00
8:53 PM,23.0,8.1,53,29.89,10.0,SE,3.5,-,N/A,,Clear,130,2012-12-08 03:53:00
9:53 PM,23.0,10.0,58,29.85,10.0,Calm,Calm,-,N/A,,Clear,0,2012-12-08 04:53:00
10:53 PM,28.0,12.0,51,29.80,10.0,SSW,4.6,-,N/A,,Clear,210,2012-12-08 05:53:00
11:53 PM,27.0,12.9,56,29.75,10.0,SW,9.2,-,N/A,,Clear,230,2012-12-08 06:53:00